createdAt,value
2022-12-25T00:00:25.319Z,8.60
2022-12-25T00:03:11.463Z,8.50
2022-12-25T00:05:58.497Z,8.50
2022-12-25T00:08:44.452Z,8.50
2022-12-25T00:11:30.846Z,8.50
2022-12-25T00:14:17.187Z,8.40
2022-12-25T00:17:03.105Z,8.40
2022-12-25T00:19:49.124Z,8.40
2022-12-25T00:22:35.430Z,8.30
2022-12-25T00:25:21.376Z,8.30
2022-12-25T00:28:07.608Z,8.30
2022-12-25T00:30:53.514Z,8.20
2022-12-25T00:33:40.663Z,8.20
2022-12-25T00:36:28.606Z,8.20
2022-12-25T00:39:14.549Z,8.20
2022-12-25T00:42:18.816Z,8.20
2022-12-25T00:45:05.907Z,8.30
2022-12-25T00:47:51.930Z,8.30
2022-12-25T00:50:38.570Z,8.30
2022-12-25T00:53:24.307Z,8.30
2022-12-25T00:56:10.342Z,8.30
2022-12-25T00:58:56.196Z,8.40
2022-12-25T01:01:42.599Z,8.40
2022-12-25T01:04:28.449Z,8.40
2022-12-25T01:07:16.683Z,8.50
2022-12-25T01:10:21.145Z,8.50
2022-12-25T01:13:08.223Z,8.50
2022-12-25T01:15:54.595Z,8.60
2022-12-25T01:18:40.384Z,8.60
2022-12-25T01:21:26.465Z,8.70
2022-12-25T01:24:12.734Z,8.70
2022-12-25T01:26:58.606Z,8.70
2022-12-25T01:29:45.992Z,8.70
2022-12-25T01:32:32.144Z,8.80
2022-12-25T01:35:18.318Z,8.80
2022-12-25T01:38:04.449Z,8.80
2022-12-25T01:40:50.498Z,8.80
2022-12-25T01:43:56.493Z,8.80
2022-12-25T01:46:43.143Z,8.80
2022-12-25T01:49:28.966Z,8.70
2022-12-25T01:52:23.352Z,8.70
2022-12-25T01:55:11.784Z,8.70
2022-12-25T01:57:57.697Z,8.70
2022-12-25T02:00:43.713Z,8.70
2022-12-25T02:03:30.076Z,8.70
2022-12-25T02:06:16.722Z,8.60
2022-12-25T02:09:03.046Z,8.60
2022-12-25T02:11:57.970Z,8.50
2022-12-25T02:14:44.472Z,8.50
2022-12-25T02:17:39.567Z,8.50
2022-12-25T02:20:28.809Z,8.50
2022-12-25T02:23:17.723Z,8.50
2022-12-25T02:26:33.210Z,8.50
2022-12-25T02:29:37.717Z,8.50
2022-12-25T02:32:39.961Z,8.60
2022-12-25T02:35:31.024Z,8.50
2022-12-25T02:38:20.069Z,8.60
2022-12-25T02:41:09.678Z,8.70
2022-12-25T02:44:15.307Z,8.80
2022-12-25T02:47:20.890Z,8.80
2022-12-25T02:50:26.017Z,8.90
2022-12-25T02:53:30.861Z,8.90
2022-12-25T02:56:36.342Z,9.00
2022-12-25T02:59:41.261Z,9.00
2022-12-25T03:02:46.868Z,9.10
2022-12-25T03:05:52.991Z,9.10
2022-12-25T03:08:41.902Z,9.20
2022-12-25T03:11:31.240Z,9.20
2022-12-25T03:14:35.828Z,9.20
2022-12-25T03:17:21.597Z,9.20
2022-12-25T03:20:26.303Z,9.20
2022-12-25T03:23:32.369Z,9.20
2022-12-25T03:26:36.898Z,9.20
2022-12-25T03:29:48.490Z,9.20
2022-12-25T03:32:58.867Z,9.20
2022-12-25T03:35:49.288Z,9.20
2022-12-25T03:38:50.558Z,9.20
2022-12-25T03:41:58.356Z,9.10
2022-12-25T03:45:11.124Z,9.10
2022-12-25T03:48:15.550Z,9.10
2022-12-25T03:51:22.709Z,9.10
2022-12-25T03:54:28.005Z,9.00
2022-12-25T03:57:32.952Z,9.10
2022-12-25T04:00:37.425Z,9.00
2022-12-25T04:03:42.006Z,9.00
2022-12-25T04:06:46.924Z,9.00
2022-12-25T04:09:51.448Z,9.00
2022-12-25T04:12:56.273Z,9.00
2022-12-25T04:16:00.927Z,9.00
2022-12-25T04:19:05.882Z,8.90
2022-12-25T04:22:10.335Z,8.90
2022-12-25T04:25:14.830Z,8.90
2022-12-25T04:28:20.615Z,8.90
2022-12-25T04:31:24.999Z,8.90
2022-12-25T04:34:29.726Z,8.80
2022-12-25T04:37:15.367Z,8.80
2022-12-25T04:40:01.403Z,8.80
2022-12-25T04:42:49.463Z,8.80
2022-12-25T04:45:35.571Z,8.80
2022-12-25T04:48:21.300Z,8.80
2022-12-25T04:51:11.379Z,8.80
2022-12-25T04:53:57.429Z,8.90
2022-12-25T04:56:45.971Z,8.80
2022-12-25T04:59:32.064Z,8.80
2022-12-25T05:02:18.534Z,8.80
2022-12-25T05:05:04.997Z,8.90
2022-12-25T05:07:50.963Z,8.90
2022-12-25T05:10:39.375Z,8.90
2022-12-25T05:13:25.406Z,8.80
2022-12-25T05:16:13.608Z,8.80
2022-12-25T05:18:59.407Z,8.80
2022-12-25T05:21:45.443Z,8.70
2022-12-25T05:24:31.444Z,8.80
2022-12-25T05:27:17.562Z,8.80
2022-12-25T05:30:04.139Z,8.80
2022-12-25T05:32:49.942Z,8.80
2022-12-25T05:35:36.640Z,8.90
2022-12-25T05:38:22.425Z,8.90
2022-12-25T05:41:08.372Z,9.00
2022-12-25T05:43:54.581Z,9.00
2022-12-25T05:46:40.707Z,9.00
2022-12-25T05:49:26.890Z,9.00
2022-12-25T05:52:12.908Z,9.00
2022-12-25T05:54:59.669Z,9.00
2022-12-25T05:57:45.412Z,9.00
2022-12-25T06:00:31.422Z,8.90
2022-12-25T06:03:17.679Z,8.90
2022-12-25T06:06:03.833Z,8.80
2022-12-25T06:08:49.624Z,8.70
2022-12-25T06:11:35.826Z,8.70
2022-12-25T06:14:21.791Z,8.70
2022-12-25T06:17:08.041Z,8.70
2022-12-25T06:19:54.546Z,8.80
2022-12-25T06:22:40.664Z,8.80
2022-12-25T06:25:27.399Z,8.80
2022-12-25T06:28:13.236Z,8.80
2022-12-25T06:30:59.353Z,8.70
2022-12-25T06:33:45.367Z,8.80
2022-12-25T06:36:31.218Z,8.80
2022-12-25T06:39:17.446Z,8.80
2022-12-25T06:42:03.729Z,8.80
2022-12-25T06:44:51.122Z,8.90
2022-12-25T06:47:38.088Z,8.90
2022-12-25T06:50:23.890Z,8.90
2022-12-25T06:53:09.926Z,9.00
2022-12-25T06:56:06.331Z,9.00
2022-12-25T06:58:57.193Z,8.90
2022-12-25T07:01:49.226Z,9.00
2022-12-25T07:04:38.162Z,9.00
2022-12-25T07:07:24.221Z,9.00
2022-12-25T07:10:10.618Z,9.00
2022-12-25T07:12:56.763Z,9.00
2022-12-25T07:15:43.061Z,9.00
2022-12-25T07:18:29.645Z,9.00
2022-12-25T07:21:16.912Z,8.90
2022-12-25T07:24:02.737Z,8.90
2022-12-25T07:26:49.118Z,8.90
2022-12-25T07:29:35.297Z,8.90
2022-12-25T07:32:21.120Z,8.80
2022-12-25T07:35:07.221Z,8.90
2022-12-25T07:37:53.338Z,8.90
2022-12-25T07:40:39.747Z,8.90
2022-12-25T07:43:26.314Z,9.00
2022-12-25T07:46:12.154Z,9.00
2022-12-25T07:48:58.254Z,9.10
2022-12-25T07:51:44.302Z,9.20
2022-12-25T07:54:30.476Z,9.40
2022-12-25T07:57:16.843Z,9.50
2022-12-25T08:00:07.101Z,9.50
2022-12-25T08:02:59.002Z,9.70
2022-12-25T08:05:49.397Z,9.80
2022-12-25T08:08:36.352Z,10.30
2022-12-25T08:11:22.474Z,11.00
2022-12-25T08:14:09.161Z,11.60
2022-12-25T08:16:55.185Z,12.10
2022-12-25T08:19:41.470Z,12.50
2022-12-25T08:22:30.559Z,12.90
2022-12-25T08:25:18.008Z,13.20
2022-12-25T08:28:08.117Z,13.50
2022-12-25T08:30:54.323Z,13.30
2022-12-25T08:33:40.535Z,12.90
2022-12-25T08:36:27.122Z,12.50
2022-12-25T08:39:12.976Z,12.00
2022-12-25T08:41:59.048Z,11.70
2022-12-25T08:44:45.516Z,11.40
2022-12-25T08:47:31.607Z,11.20
2022-12-25T08:50:17.411Z,11.10
2022-12-25T08:53:03.883Z,11.00
2022-12-25T08:55:49.649Z,10.80
2022-12-25T08:58:35.858Z,10.70
2022-12-25T09:01:21.930Z,10.60
2022-12-25T09:04:07.895Z,10.70
2022-12-25T09:06:53.897Z,10.80
2022-12-25T09:09:39.855Z,10.80
2022-12-25T09:12:25.604Z,10.90
2022-12-25T09:15:12.769Z,11.00
2022-12-25T09:17:59.209Z,11.10
2022-12-25T09:20:45.251Z,11.20
2022-12-25T09:23:32.161Z,11.30
2022-12-25T09:26:19.051Z,11.50
2022-12-25T09:29:05.018Z,11.60
2022-12-25T09:31:50.891Z,11.60
2022-12-25T09:34:37.017Z,11.60
2022-12-25T09:37:23.071Z,11.60
2022-12-25T09:40:10.747Z,11.70
2022-12-25T09:42:57.031Z,11.70
2022-12-25T09:45:43.805Z,11.80
2022-12-25T09:48:31.384Z,11.80
2022-12-25T09:51:18.372Z,11.90
2022-12-25T09:54:11.775Z,12.20
2022-12-25T09:57:04.263Z,12.80
2022-12-25T09:59:52.014Z,13.50
2022-12-25T10:02:57.359Z,14.50
2022-12-25T10:05:59.116Z,15.40
2022-12-25T10:08:51.245Z,15.90
2022-12-25T10:11:37.535Z,16.30
2022-12-25T10:14:23.616Z,17.20
2022-12-25T10:17:19.947Z,18.40
2022-12-25T10:20:19.459Z,19.70
2022-12-25T10:23:12.870Z,20.50
2022-12-25T10:25:59.834Z,20.80
2022-12-25T10:28:57.676Z,20.80
2022-12-25T10:31:45.447Z,20.60
2022-12-25T10:34:32.766Z,20.30
2022-12-25T10:37:25.098Z,20.50
2022-12-25T10:40:23.521Z,21.30
2022-12-25T10:43:17.278Z,22.00
2022-12-25T10:46:10.079Z,22.80
2022-12-25T10:49:06.370Z,23.40
2022-12-25T10:51:52.965Z,23.80
2022-12-25T10:54:39.450Z,25.00
2022-12-25T10:57:26.035Z,26.00
2022-12-25T11:00:22.531Z,26.50
2022-12-25T11:03:21.617Z,27.30
2022-12-25T11:06:21.054Z,28.10
2022-12-25T11:09:16.048Z,27.90
2022-12-25T11:12:02.714Z,27.80
2022-12-25T11:14:54.013Z,27.60
2022-12-25T11:17:48.296Z,26.80
2022-12-25T11:20:34.447Z,26.00
2022-12-25T11:23:21.406Z,25.50
2022-12-25T11:26:08.274Z,25.00
2022-12-25T11:28:55.839Z,24.70
2022-12-25T11:31:43.776Z,24.90
2022-12-25T11:34:46.408Z,25.40
2022-12-25T11:37:38.410Z,25.50
2022-12-25T11:40:26.637Z,25.50
2022-12-25T11:43:20.296Z,25.30
2022-12-25T11:46:18.639Z,25.40
2022-12-25T11:49:06.273Z,25.60
2022-12-25T11:51:53.690Z,25.50
2022-12-25T11:54:48.378Z,25.70
2022-12-25T11:57:35.672Z,25.80
2022-12-25T12:00:21.976Z,25.70
2022-12-25T12:03:20.830Z,25.30
2022-12-25T12:06:23.426Z,24.30
2022-12-25T12:09:28.471Z,23.40
2022-12-25T12:12:20.584Z,22.80
2022-12-25T12:15:06.495Z,22.10
2022-12-25T12:17:52.536Z,21.50
2022-12-25T12:20:43.879Z,21.10
2022-12-25T12:23:31.439Z,20.90
2022-12-25T12:26:31.536Z,21.10
2022-12-25T12:29:25.827Z,21.60
2022-12-25T12:32:25.137Z,22.30
2022-12-25T12:35:20.348Z,22.80
2022-12-25T12:38:12.473Z,23.00
2022-12-25T12:40:58.816Z,22.60
2022-12-25T12:44:05.430Z,22.20
2022-12-25T12:46:53.639Z,21.60
2022-12-25T12:49:39.942Z,21.00
2022-12-25T12:52:33.038Z,20.60
2022-12-25T12:55:28.683Z,20.80
2022-12-25T12:58:49.964Z,21.50
2022-12-25T13:01:36.128Z,21.90
2022-12-25T13:04:41.817Z,22.10
2022-12-25T13:08:00.564Z,22.20
2022-12-25T13:10:48.880Z,22.50
2022-12-25T13:13:40.693Z,22.50
2022-12-25T13:16:27.027Z,22.40
2022-12-25T13:19:18.672Z,22.40
2022-12-25T13:22:06.257Z,22.30
2022-12-25T13:24:56.835Z,22.10
2022-12-25T13:27:42.780Z,22.60
2022-12-25T13:30:28.862Z,22.90
2022-12-25T13:33:18.145Z,23.20
2022-12-25T13:36:05.146Z,23.60
2022-12-25T13:38:57.163Z,24.00
2022-12-25T13:42:02.954Z,24.80
2022-12-25T13:45:02.340Z,25.70
2022-12-25T13:47:54.890Z,26.30
2022-12-25T13:50:46.636Z,26.40
2022-12-25T13:53:32.697Z,26.70
2022-12-25T13:56:18.830Z,26.60
2022-12-25T13:59:05.132Z,26.40
2022-12-25T14:01:52.040Z,26.10
2022-12-25T14:04:43.517Z,25.50
2022-12-25T14:07:29.352Z,24.70
2022-12-25T14:10:15.109Z,24.50
2022-12-25T14:13:03.498Z,24.30
2022-12-25T14:15:50.228Z,24.10
2022-12-25T14:18:36.699Z,24.30
2022-12-25T14:21:28.400Z,24.30
2022-12-25T14:24:15.412Z,24.40
2022-12-25T14:27:06.455Z,24.90
2022-12-25T14:29:54.754Z,24.70
2022-12-25T14:32:42.658Z,24.00
2022-12-25T14:35:28.987Z,23.80
2022-12-25T14:38:26.277Z,24.30
2022-12-25T14:41:24.252Z,24.70
2022-12-25T14:44:30.621Z,25.30
2022-12-25T14:47:18.769Z,25.60
2022-12-25T14:50:24.954Z,25.70
2022-12-25T14:53:19.859Z,25.80
2022-12-25T14:56:10.147Z,25.60
2022-12-25T14:58:57.528Z,25.10
2022-12-25T15:01:44.772Z,24.80
2022-12-25T15:04:30.769Z,24.40
2022-12-25T15:07:30.632Z,23.70
2022-12-25T15:10:58.285Z,22.40
2022-12-25T15:13:29.704Z,20.70
2022-12-25T15:16:18.158Z,19.00
2022-12-25T15:19:06.856Z,17.80
2022-12-25T15:21:53.123Z,16.80
2022-12-25T15:24:39.139Z,16.00
2022-12-25T15:27:25.265Z,15.50
2022-12-25T15:30:11.942Z,15.00
2022-12-25T15:32:57.897Z,14.60
2022-12-25T15:35:46.954Z,14.30
2022-12-25T15:38:36.628Z,14.10
2022-12-25T15:41:43.075Z,13.90
2022-12-25T15:44:29.874Z,13.70
2022-12-25T15:47:16.517Z,13.60
2022-12-25T15:50:02.687Z,13.50
2022-12-25T15:52:48.646Z,13.40
2022-12-25T15:55:35.066Z,13.30
2022-12-25T15:58:21.233Z,13.20
2022-12-25T16:01:07.819Z,13.10
2022-12-25T16:03:53.646Z,12.90
2022-12-25T16:06:39.686Z,12.80
2022-12-25T16:09:27.566Z,12.70
2022-12-25T16:12:13.481Z,12.60
2022-12-25T16:14:59.192Z,12.50
2022-12-25T16:17:45.729Z,12.40
2022-12-25T16:20:31.635Z,12.40
2022-12-25T16:23:17.788Z,12.30
2022-12-25T16:26:03.972Z,12.20
2022-12-25T16:28:50.310Z,12.10
2022-12-25T16:31:36.982Z,12.00
2022-12-25T16:34:23.355Z,11.90
2022-12-25T16:37:09.344Z,11.90
2022-12-25T16:39:56.707Z,11.70
2022-12-25T16:42:42.594Z,11.70
2022-12-25T16:45:28.901Z,11.60
2022-12-25T16:48:15.218Z,11.50
2022-12-25T16:51:01.618Z,11.40
2022-12-25T16:53:48.211Z,11.30
2022-12-25T16:56:36.654Z,11.20
2022-12-25T16:59:22.554Z,11.20
2022-12-25T17:02:11.946Z,11.10
2022-12-25T17:04:58.443Z,11.00
2022-12-25T17:07:45.218Z,10.90
2022-12-25T17:10:31.080Z,10.80
2022-12-25T17:13:17.312Z,10.80
2022-12-25T17:16:13.827Z,10.70
2022-12-25T17:19:01.519Z,10.70
2022-12-25T17:21:47.941Z,10.60
2022-12-25T17:24:36.280Z,10.60
2022-12-25T17:27:23.665Z,10.60
2022-12-25T17:30:10.005Z,10.50
2022-12-25T17:32:57.559Z,10.40
2022-12-25T17:35:43.994Z,10.40
2022-12-25T17:38:31.027Z,10.40
2022-12-25T17:41:18.053Z,10.30
2022-12-25T17:44:04.273Z,10.10
2022-12-25T17:46:50.492Z,10.10
2022-12-25T17:49:36.976Z,10.10
2022-12-25T17:52:23.292Z,10.00
2022-12-25T17:55:09.493Z,10.00
2022-12-25T17:57:55.893Z,10.00
2022-12-25T18:00:42.215Z,10.00
2022-12-25T18:03:28.281Z,9.70
2022-12-25T18:06:16.052Z,9.70
2022-12-25T18:09:02.052Z,9.50
2022-12-25T18:11:48.448Z,9.40
2022-12-25T18:14:34.298Z,9.30
2022-12-25T18:17:20.427Z,9.30
2022-12-25T18:20:06.605Z,9.20
2022-12-25T18:22:52.985Z,9.20
2022-12-25T18:25:42.916Z,9.00
2022-12-25T18:28:29.057Z,9.00
2022-12-25T18:31:16.851Z,9.10
2022-12-25T18:34:03.012Z,9.20
2022-12-25T18:36:49.431Z,9.20
2022-12-25T18:39:35.626Z,9.30
2022-12-25T18:42:39.735Z,9.40
2022-12-25T18:45:25.981Z,9.30
2022-12-25T18:48:11.809Z,9.20
2022-12-25T18:50:59.314Z,9.20
2022-12-25T18:53:45.661Z,9.10
2022-12-25T18:56:31.596Z,9.00
2022-12-25T18:59:17.987Z,9.00
2022-12-25T19:02:04.111Z,9.00
2022-12-25T19:04:50.029Z,9.00
2022-12-25T19:07:36.974Z,9.00
2022-12-25T19:10:22.986Z,8.90
2022-12-25T19:13:09.161Z,8.90
2022-12-25T19:15:58.792Z,8.90
2022-12-25T19:18:45.175Z,8.90
2022-12-25T19:21:31.153Z,9.00
2022-12-25T19:24:17.686Z,9.00
2022-12-25T19:27:04.108Z,8.90
2022-12-25T19:29:49.866Z,8.90
2022-12-25T19:32:35.832Z,8.90
2022-12-25T19:35:21.882Z,8.90
2022-12-25T19:38:07.826Z,8.90
2022-12-25T19:41:02.833Z,8.80
2022-12-25T19:43:49.403Z,8.90
2022-12-25T19:46:36.608Z,8.90
2022-12-25T19:49:22.403Z,8.90
2022-12-25T19:52:08.702Z,8.90
2022-12-25T19:54:54.426Z,8.90
2022-12-25T19:57:40.485Z,8.80
2022-12-25T20:00:27.420Z,8.80
2022-12-25T20:03:13.693Z,8.90
2022-12-25T20:05:59.896Z,9.00
2022-12-25T20:08:50.443Z,9.00
2022-12-25T20:11:36.986Z,9.10
2022-12-25T20:14:22.770Z,9.20
2022-12-25T20:17:15.366Z,9.30
2022-12-25T20:20:02.020Z,9.50
2022-12-25T20:22:47.780Z,9.50
2022-12-25T20:25:33.916Z,9.60
2022-12-25T20:28:20.064Z,9.80
2022-12-25T20:31:07.249Z,9.80
2022-12-25T20:33:54.282Z,9.90
2022-12-25T20:36:40.545Z,10.00
2022-12-25T20:39:28.015Z,10.10
2022-12-25T20:42:13.944Z,10.20
2022-12-25T20:45:00.472Z,10.20
2022-12-25T20:47:47.547Z,10.30
2022-12-25T20:50:34.036Z,10.30
2022-12-25T20:53:20.536Z,10.20
2022-12-25T20:56:08.211Z,10.20
2022-12-25T20:58:55.135Z,10.20
2022-12-25T21:01:41.415Z,10.10
2022-12-25T21:04:27.504Z,10.00
2022-12-25T21:07:13.612Z,10.00
2022-12-25T21:09:59.733Z,9.90
2022-12-25T21:12:45.452Z,9.90
2022-12-25T21:15:31.484Z,9.80
2022-12-25T21:18:19.073Z,9.80
2022-12-25T21:21:07.339Z,9.80
2022-12-25T21:23:55.372Z,9.70
2022-12-25T21:26:47.679Z,9.60
2022-12-25T21:29:35.609Z,9.60
2022-12-25T21:32:40.388Z,9.50
2022-12-25T21:35:26.041Z,9.50
2022-12-25T21:38:12.193Z,9.50
2022-12-25T21:41:09.401Z,9.50
2022-12-25T21:43:55.894Z,9.50
2022-12-25T21:46:41.972Z,9.50
2022-12-25T21:49:46.788Z,9.50
2022-12-25T21:52:32.748Z,9.40
2022-12-25T21:55:18.393Z,9.40
2022-12-25T21:58:04.403Z,9.50
2022-12-25T22:00:50.495Z,9.50
2022-12-25T22:03:36.780Z,9.50
2022-12-25T22:06:41.527Z,9.50
2022-12-25T22:09:27.539Z,9.50
2022-12-25T22:12:40.052Z,9.60
2022-12-25T22:15:44.968Z,9.60
2022-12-25T22:18:49.266Z,9.60
2022-12-25T22:21:35.133Z,9.60
2022-12-25T22:24:21.064Z,9.50
2022-12-25T22:27:07.276Z,9.60
2022-12-25T22:29:53.314Z,9.50
2022-12-25T22:32:39.855Z,9.50
2022-12-25T22:35:25.777Z,9.50
2022-12-25T22:38:11.751Z,9.40
2022-12-25T22:40:57.767Z,9.40
2022-12-25T22:44:15.811Z,9.30
2022-12-25T22:46:50.135Z,9.30
2022-12-25T22:49:36.107Z,9.20
2022-12-25T22:52:22.243Z,9.10
2022-12-25T22:55:08.902Z,9.10
2022-12-25T22:57:55.688Z,9.10
2022-12-25T23:00:46.276Z,9.10
2022-12-25T23:03:32.612Z,9.10
2022-12-25T23:06:18.318Z,9.20
2022-12-25T23:09:04.980Z,9.20
2022-12-25T23:11:50.834Z,9.20
2022-12-25T23:14:39.700Z,9.20
2022-12-25T23:17:44.651Z,9.20
2022-12-25T23:21:07.611Z,9.20
2022-12-25T23:24:12.001Z,9.20
2022-12-25T23:26:58.024Z,9.20
2022-12-25T23:29:43.634Z,9.20
2022-12-25T23:32:29.791Z,9.10
2022-12-25T23:35:15.905Z,9.10
2022-12-25T23:38:01.830Z,8.90
2022-12-25T23:40:47.887Z,8.90
2022-12-25T23:43:34.070Z,8.80
2022-12-25T23:46:20.321Z,8.70
2022-12-25T23:49:06.848Z,8.70
2022-12-25T23:51:53.556Z,8.70
2022-12-25T23:54:39.614Z,8.80
2022-12-25T23:57:25.657Z,8.90
